Time;durP1;ratioP1;P1;durP2;ratioP2;P2;SDS_P1;SDS_P2;PMS_P1;PMS_P2;Temp;Humidity;BMP_temperature;BMP_pressure;BME280_temperature;BME280_humidity;BME280_pressure;Samples;Min_cycle;Max_cycle;Signal;HPM_P1;HPM_P2
2022/12/05 00:05:29;;;;;;;37.03;21.25;;;;;;;;;;21004786;28;20052;-60
2022/12/05 00:15:35;;;;;;;39.95;21.58;;;;;;;;;;21004483;28;20114;-60
2022/12/05 00:25:39;;;;;;;39.13;21.08;;;;;;;;;;21002464;28;20075;-62
2022/12/05 00:35:41;;;;;;;39.55;21.20;;;;;;;;;;21001270;28;20058;-61
2022/12/05 00:45:43;;;;;;;39.58;21.77;;;;;;;;;;21000758;28;20048;-62
2022/12/05 00:55:46;;;;;;;37.35;20.55;;;;;;;;;;20999670;28;20390;-61
2022/12/05 01:05:48;;;;;;;33.90;19.70;;;;;;;;;;20999477;28;20053;-63
2022/12/05 01:15:50;;;;;;;35.22;19.48;;;;;;;;;;20998084;28;20048;-61
2022/12/05 01:25:53;;;;;;;28.75;16.83;;;;;;;;;;20997806;28;20056;-63
2022/12/05 01:35:55;;;;;;;28.30;15.52;;;;;;;;;;20995361;28;20159;-61
2022/12/05 01:45:58;;;;;;;23.88;13.98;;;;;;;;;;20996706;28;20044;-61
2022/12/05 01:56:02;;;;;;;22.92;12.57;;;;;;;;;;20995795;28;20048;-62
2022/12/05 02:06:03;;;;;;;23.35;11.80;;;;;;;;;;20995740;28;20127;-62
2022/12/05 02:16:14;;;;;;;23.25;13.27;;;;;;;;;;20994582;28;20080;-61
2022/12/05 02:26:24;;;;;;;20.58;12.00;;;;;;;;;;20995319;28;20059;-61
2022/12/05 02:36:33;;;;;;;21.75;12.27;;;;;;;;;;20994534;28;20140;-61
2022/12/05 02:46:48;;;;;;;20.30;12.00;;;;;;;;;;21004685;28;20457;-65
2022/12/05 02:56:57;;;;;;;18.60;11.30;;;;;;;;;;21009393;28;20052;-63
2022/12/05 03:07:03;;;;;;;20.23;11.52;;;;;;;;;;21008911;28;20481;-59
2022/12/05 03:17:10;;;;;;;25.77;14.38;;;;;;;;;;21008441;28;20102;-60
2022/12/05 03:27:16;;;;;;;30.20;16.95;;;;;;;;;;21006624;28;20405;-60
2022/12/05 03:37:41;;;;;;;26.05;15.55;;;;;;;;;;21005905;28;20052;-60
2022/12/05 03:47:52;;;;;;;24.85;15.88;;;;;;;;;;21006959;28;20075;-60
2022/12/05 03:58:01;;;;;;;30.17;15.80;;;;;;;;;;21004383;28;20057;-61
2022/12/05 04:08:07;;;;;;;23.90;13.43;;;;;;;;;;21004096;28;20048;-60
2022/12/05 04:18:10;;;;;;;24.58;13.85;;;;;;;;;;21003840;28;20527;-62
2022/12/05 04:28:32;;;;;;;26.15;15.40;;;;;;;;;;21001362;28;20127;-60
2022/12/05 04:38:37;;;;;;;25.30;13.85;;;;;;;;;;21000047;28;20052;-61
2022/12/05 04:48:54;;;;;;;23.75;13.48;;;;;;;;;;20999555;28;20045;-59
2022/12/05 04:58:59;;;;;;;22.15;12.50;;;;;;;;;;20998719;28;20466;-59
2022/12/05 05:09:02;;;;;;;22.38;11.85;;;;;;;;;;20998128;28;20044;-59
2022/12/05 05:19:23;;;;;;;19.40;10.40;;;;;;;;;;20996918;28;20049;-60
2022/12/05 05:29:45;;;;;;;17.77;9.90;;;;;;;;;;20998179;28;20424;-60
2022/12/05 05:40:08;;;;;;;17.73;9.38;;;;;;;;;;20997053;28;20433;-60
2022/12/05 05:50:29;;;;;;;15.77;8.80;;;;;;;;;;20996512;28;20053;-59
2022/12/05 06:00:38;;;;;;;15.70;8.23;;;;;;;;;;20996053;28;20048;-58
2022/12/05 06:10:45;;;;;;;12.63;7.45;;;;;;;;;;20994940;28;20056;-60
2022/12/05 06:20:55;;;;;;;15.07;8.13;;;;;;;;;;21009468;28;20041;-58
2022/12/05 06:30:59;;;;;;;14.45;8.35;;;;;;;;;;21022306;28;20056;-59
2022/12/05 06:41:07;;;;;;;13.48;7.60;;;;;;;;;;21022606;28;20127;-60
2022/12/05 06:51:10;;;;;;;11.95;7.15;;;;;;;;;;21021455;28;20107;-60
2022/12/05 07:11:34;;;;;;;11.68;6.93;;;;;;;;;;21022124;28;20460;-60
2022/12/05 07:21:37;;;;;;;13.32;7.43;;;;;;;;;;21021269;28;20481;-60
2022/12/05 07:31:39;;;;;;;13.63;6.95;;;;;;;;;;21013875;28;20381;-60
2022/12/05 07:41:41;;;;;;;12.77;6.65;;;;;;;;;;21007492;28;20040;-60
2022/12/05 07:51:43;;;;;;;14.60;7.80;;;;;;;;;;21005931;28;20048;-61
2022/12/05 08:01:45;;;;;;;10.77;6.53;;;;;;;;;;21005502;28;20057;-60
2022/12/05 08:11:47;;;;;;;10.73;6.60;;;;;;;;;;21003179;28;20143;-60
2022/12/05 08:21:51;;;;;;;10.98;5.93;;;;;;;;;;21003338;28;20139;-61
2022/12/05 08:31:54;;;;;;;11.60;6.78;;;;;;;;;;21001645;28;20440;-61
2022/12/05 08:41:56;;;;;;;9.13;5.15;;;;;;;;;;21000999;28;20062;-60
2022/12/05 08:51:57;;;;;;;11.05;5.45;;;;;;;;;;21000378;28;20048;-58
2022/12/05 09:01:59;;;;;;;10.25;5.22;;;;;;;;;;20999572;28;20048;-64
2022/12/05 09:12:01;;;;;;;9.27;5.80;;;;;;;;;;20999910;28;20101;-62
2022/12/05 09:22:04;;;;;;;9.80;5.63;;;;;;;;;;20999840;28;20385;-60
2022/12/05 09:32:07;;;;;;;11.68;5.90;;;;;;;;;;20997884;28;20471;-59
2022/12/05 09:42:08;;;;;;;10.80;6.53;;;;;;;;;;20996778;28;20048;-60
2022/12/05 09:52:15;;;;;;;10.95;6.15;;;;;;;;;;20996290;28;20435;-60
2022/12/05 10:02:17;;;;;;;11.80;6.20;;;;;;;;;;20996962;28;20133;-61
2022/12/05 10:12:32;;;;;;;9.95;5.80;;;;;;;;;;20995220;28;20448;-60
2022/12/05 10:22:54;;;;;;;9.43;5.75;;;;;;;;;;20995218;28;20049;-60
2022/12/05 10:33:05;;;;;;;13.23;5.55;;;;;;;;;;20994912;28;20381;-60
2022/12/05 10:43:08;;;;;;;6.55;4.13;;;;;;;;;;20991906;28;20105;-68
2022/12/05 10:53:15;;;;;;;12.80;5.88;;;;;;;;;;20992578;28;20067;-62
2022/12/05 11:03:31;;;;;;;10.57;6.53;;;;;;;;;;20991132;28;20497;-60
2022/12/05 11:13:34;;;;;;;13.30;6.57;;;;;;;;;;20995875;28;20400;-64
2022/12/05 11:23:36;;;;;;;12.80;6.25;;;;;;;;;;21004107;28;20044;-61
2022/12/05 11:33:38;;;;;;;12.07;6.75;;;;;;;;;;21005055;28;20049;-62
2022/12/05 11:43:44;;;;;;;12.57;7.40;;;;;;;;;;21006304;28;20051;-61
2022/12/05 11:53:45;;;;;;;15.40;8.55;;;;;;;;;;21005225;28;20068;-59
2022/12/05 12:03:53;;;;;;;13.10;7.85;;;;;;;;;;21005091;28;20386;-60
2022/12/05 12:14:00;;;;;;;11.30;7.05;;;;;;;;;;21001746;28;20496;-60
2022/12/05 12:24:14;;;;;;;16.90;8.25;;;;;;;;;;21001765;28;20130;-61
2022/12/05 12:34:19;;;;;;;13.23;7.97;;;;;;;;;;21001387;28;20059;-60
2022/12/05 12:44:27;;;;;;;13.68;8.35;;;;;;;;;;21001374;28;20099;-59
2022/12/05 12:54:28;;;;;;;13.48;8.00;;;;;;;;;;21000285;28;20053;-61
2022/12/05 13:04:39;;;;;;;14.25;7.88;;;;;;;;;;20987675;28;20055;-59
2022/12/05 13:14:48;;;;;;;12.82;7.80;;;;;;;;;;21000047;28;20048;-60
2022/12/05 13:24:50;;;;;;;17.42;9.82;;;;;;;;;;20999308;28;20144;-61
2022/12/05 13:34:53;;;;;;;14.63;8.40;;;;;;;;;;21076987;28;20112;-62
2022/12/05 13:45:06;;;;;;;14.27;8.40;;;;;;;;;;21081410;28;20055;-60
2022/12/05 13:55:26;;;;;;;15.23;8.23;;;;;;;;;;21080018;28;20044;-60
2022/12/05 14:05:28;;;;;;;;;;;;;;;;;;21080240;28;20161;-62
2022/12/05 14:15:38;;;;;;;17.30;8.43;;;;;;;;;;21078941;28;19963;-60
2022/12/05 14:25:54;;;;;;;16.13;8.50;;;;;;;;;;21079255;28;20508;-63
2022/12/05 14:36:02;;;;;;;13.32;8.73;;;;;;;;;;21077683;28;20055;-63
2022/12/05 14:46:14;;;;;;;13.63;8.43;;;;;;;;;;21094991;28;20108;-59
2022/12/05 14:56:20;;;;;;;14.77;8.35;;;;;;;;;;21094635;28;20489;-64
2022/12/05 15:06:24;;;;;;;15.07;9.40;;;;;;;;;;21093156;28;20040;-62
2022/12/05 15:16:28;;;;;;;13.88;8.90;;;;;;;;;;21092599;28;20056;-65
2022/12/05 15:26:47;;;;;;;16.45;9.57;;;;;;;;;;21091333;28;20553;-61
2022/12/05 15:37:12;;;;;;;22.65;11.52;;;;;;;;;;21091449;28;20059;-60
2022/12/05 15:47:24;;;;;;;22.52;12.82;;;;;;;;;;20669674;28;20053;-59
2022/12/05 15:57:37;;;;;;;21.95;11.55;;;;;;;;;;20667524;28;20391;-58
2022/12/05 16:07:39;;;;;;;22.92;11.45;;;;;;;;;;20668517;28;20129;-60
2022/12/05 16:17:52;;;;;;;24.95;12.57;;;;;;;;;;20747587;28;20052;-59
2022/12/05 16:27:56;;;;;;;22.77;12.05;;;;;;;;;;21086614;28;20048;-60
2022/12/05 16:38:22;;;;;;;17.60;9.82;;;;;;;;;;21079246;28;20094;-60
2022/12/05 16:48:30;;;;;;;17.77;9.85;;;;;;;;;;20854323;28;20390;-65
2022/12/05 16:58:34;;;;;;;22.17;12.40;;;;;;;;;;20848561;28;20049;-60
2022/12/05 17:08:36;;;;;;;18.55;11.07;;;;;;;;;;20862907;28;20114;-61
2022/12/05 17:18:38;;;;;;;20.60;10.80;;;;;;;;;;20945071;28;20474;-60
2022/12/05 17:28:40;;;;;;;20.08;10.60;;;;;;;;;;21082008;28;20055;-61
2022/12/05 17:38:42;;;;;;;19.95;12.20;;;;;;;;;;21081623;28;20130;-61
2022/12/05 17:48:45;;;;;;;21.48;11.75;;;;;;;;;;21080975;28;20166;-62
2022/12/05 17:58:48;;;;;;;20.65;11.00;;;;;;;;;;21080269;28;20131;-61
2022/12/05 18:08:50;;;;;;;22.35;11.75;;;;;;;;;;21079568;28;20058;-62
2022/12/05 18:18:52;;;;;;;18.55;10.98;;;;;;;;;;21078774;28;20125;-62
2022/12/05 18:28:57;;;;;;;19.25;11.82;;;;;;;;;;21078821;28;20126;-62
2022/12/05 18:39:00;;;;;;;19.67;11.57;;;;;;;;;;21078230;28;20044;-61
2022/12/05 18:49:03;;;;;;;18.90;11.57;;;;;;;;;;21077460;28;20050;-62
2022/12/05 18:59:11;;;;;;;19.67;11.60;;;;;;;;;;21077562;28;20093;-61
2022/12/05 19:09:14;;;;;;;20.20;10.95;;;;;;;;;;21077028;28;20048;-61
2022/12/05 19:19:16;;;;;;;14.32;9.38;;;;;;;;;;21076614;28;20402;-61
2022/12/05 19:29:18;;;;;;;16.33;9.40;;;;;;;;;;21086478;28;20067;-61
2022/12/05 19:39:24;;;;;;;15.73;10.43;;;;;;;;;;21092340;28;20063;-61
2022/12/05 19:49:25;;;;;;;17.20;10.02;;;;;;;;;;21090597;28;20122;-61
2022/12/05 19:59:27;;;;;;;16.85;10.32;;;;;;;;;;21090204;28;20051;-62
2022/12/05 20:09:29;;;;;;;18.38;9.50;;;;;;;;;;21088396;28;20396;-61
2022/12/05 20:19:32;;;;;;;17.70;9.80;;;;;;;;;;21087808;28;20400;-61
2022/12/05 20:29:37;;;;;;;33.95;20.80;;;;;;;;;;21086531;28;20147;-61
2022/12/05 20:39:39;;;;;;;20.58;11.73;;;;;;;;;;21085085;28;20052;-60
2022/12/05 20:49:41;;;;;;;20.33;11.10;;;;;;;;;;21085782;28;20066;-60
2022/12/05 20:59:43;;;;;;;20.20;11.63;;;;;;;;;;21084264;28;20058;-61
2022/12/05 21:09:45;;;;;;;22.15;13.13;;;;;;;;;;21083504;28;20047;-60
2022/12/05 21:19:47;;;;;;;17.95;10.65;;;;;;;;;;21082461;28;20044;-61
2022/12/05 21:29:49;;;;;;;18.17;11.25;;;;;;;;;;21081910;28;20121;-61
2022/12/05 21:39:51;;;;;;;20.67;10.70;;;;;;;;;;21080026;28;20096;-61
2022/12/05 21:49:53;;;;;;;17.90;10.93;;;;;;;;;;21080131;28;20051;-60
2022/12/05 21:59:55;;;;;;;20.10;11.05;;;;;;;;;;21079254;28;20054;-61
2022/12/05 22:09:57;;;;;;;27.92;15.30;;;;;;;;;;21060583;28;20059;-61
2022/12/05 22:19:59;;;;;;;17.77;10.38;;;;;;;;;;21078537;28;20075;-62
2022/12/05 22:30:01;;;;;;;15.88;8.90;;;;;;;;;;21078245;28;20040;-61
2022/12/05 22:40:03;;;;;;;15.73;8.75;;;;;;;;;;21077649;28;20058;-62
2022/12/05 22:50:06;;;;;;;15.68;8.18;;;;;;;;;;21077731;28;20384;-61
2022/12/05 23:00:08;;;;;;;19.02;8.52;;;;;;;;;;21082349;28;20044;-61
2022/12/05 23:10:11;;;;;;;15.75;8.50;;;;;;;;;;21094863;28;20135;-61
2022/12/05 23:20:13;;;;;;;16.98;8.80;;;;;;;;;;21093163;28;20056;-61
2022/12/05 23:30:16;;;;;;;17.08;8.90;;;;;;;;;;21093000;28;20456;-61
2022/12/05 23:40:18;;;;;;;18.77;8.90;;;;;;;;;;21091673;28;20425;-60
2022/12/05 23:50:19;;;;;;;23.38;11.70;;;;;;;;;;21090280;28;20381;-61
